Time;durP1;ratioP1;P1;durP2;ratioP2;P2;SDS_P1;SDS_P2;PMS_P1;PMS_P2;Temp;Humidity;BMP_temperature;BMP_pressure;BME280_temperature;BME280_humidity;BME280_pressure;Samples;Min_cycle;Max_cycle;Signal;HPM_P1;HPM_P2
2022/12/10 00:00:33;;;;;;;8.07;4.60;;;;;;;;;;5116926;28;20524;-73
2022/12/10 00:03:01;;;;;;;7.97;4.73;;;;;;;;;;5115577;28;20043;-72
2022/12/10 00:05:26;;;;;;;10.90;5.67;;;;;;;;;;5118026;28;20015;-72
2022/12/10 00:07:52;;;;;;;9.07;5.50;;;;;;;;;;5115023;28;20450;-72
2022/12/10 00:10:17;;;;;;;7.30;3.97;;;;;;;;;;5114000;28;20051;-72
2022/12/10 00:12:43;;;;;;;11.17;5.27;;;;;;;;;;5115835;28;20569;-73
2022/12/10 00:15:08;;;;;;;8.97;5.43;;;;;;;;;;5113985;28;20030;-72
2022/12/10 00:17:36;;;;;;;10.20;6.07;;;;;;;;;;5114209;28;20122;-71
2022/12/10 00:20:01;;;;;;;9.93;5.10;;;;;;;;;;5116563;28;20016;-73
2022/12/10 00:22:27;;;;;;;11.00;5.17;;;;;;;;;;5118279;28;20020;-73
2022/12/10 00:24:53;;;;;;;10.63;5.27;;;;;;;;;;5118378;28;20015;-72
2022/12/10 00:27:19;;;;;;;7.90;4.67;;;;;;;;;;5115315;28;20360;-71
2022/12/10 00:29:44;;;;;;;9.70;4.83;;;;;;;;;;5113295;28;20053;-81
2022/12/10 00:32:09;;;;;;;10.17;4.90;;;;;;;;;;5113515;28;20047;-72
2022/12/10 00:34:36;;;;;;;9.13;5.30;;;;;;;;;;5115024;28;20031;-72
2022/12/10 00:37:01;;;;;;;8.20;4.47;;;;;;;;;;5112627;28;20088;-72
2022/12/10 00:39:28;;;;;;;9.57;6.13;;;;;;;;;;5114529;28;20495;-71
2022/12/10 00:41:54;;;;;;;8.50;4.53;;;;;;;;;;5113345;28;20018;-73
2022/12/10 00:44:20;;;;;;;8.53;4.17;;;;;;;;;;5113483;28;20019;-72
2022/12/10 00:46:46;;;;;;;8.73;4.20;;;;;;;;;;5113442;28;20019;-72
2022/12/10 00:49:11;;;;;;;6.57;3.83;;;;;;;;;;5115956;28;20027;-73
2022/12/10 00:51:37;;;;;;;10.20;4.87;;;;;;;;;;5114470;28;20055;-73
2022/12/10 00:54:02;;;;;;;7.67;3.77;;;;;;;;;;5114173;28;20043;-71
2022/12/10 00:56:29;;;;;;;9.37;4.87;;;;;;;;;;5114554;28;20020;-72
2022/12/10 00:58:55;;;;;;;6.17;3.97;;;;;;;;;;5114573;28;20027;-71
2022/12/10 01:01:31;;;;;;;7.60;4.20;;;;;;;;;;5112975;28;20020;-72
2022/12/10 01:03:58;;;;;;;7.67;4.27;;;;;;;;;;5114454;28;20020;-73
2022/12/10 01:06:25;;;;;;;8.50;4.60;;;;;;;;;;5114236;28;20015;-73
2022/12/10 01:08:52;;;;;;;7.73;4.30;;;;;;;;;;5113046;28;20026;-71
2022/12/10 01:11:18;;;;;;;10.50;5.13;;;;;;;;;;5114102;28;20019;-72
2022/12/10 01:13:46;;;;;;;10.53;6.10;;;;;;;;;;5114531;28;20020;-71
2022/12/10 01:16:13;;;;;;;9.47;5.47;;;;;;;;;;5119241;28;20024;-73
2022/12/10 01:18:38;;;;;;;10.10;4.83;;;;;;;;;;5120328;28;20019;-75
2022/12/10 01:21:05;;;;;;;12.67;5.80;;;;;;;;;;5114814;28;20106;-73
2022/12/10 01:23:35;;;;;;;11.00;4.43;;;;;;;;;;5113436;28;20019;-73
2022/12/10 01:26:05;;;;;;;10.97;5.37;;;;;;;;;;5112848;28;20076;-73
2022/12/10 01:28:32;;;;;;;13.17;5.60;;;;;;;;;;5112620;28;20027;-73
2022/12/10 01:31:10;;;;;;;10.27;5.17;;;;;;;;;;5113557;28;20043;-73
2022/12/10 01:33:38;;;;;;;9.10;4.93;;;;;;;;;;5112487;28;20030;-74
2022/12/10 01:36:05;;;;;;;7.97;4.40;;;;;;;;;;5112659;28;20020;-72
2022/12/10 01:38:30;;;;;;;9.07;5.27;;;;;;;;;;5112467;28;20467;-72
2022/12/10 01:40:56;;;;;;;8.47;5.17;;;;;;;;;;5112138;28;20016;-75
2022/12/10 01:43:21;;;;;;;6.47;4.10;;;;;;;;;;5113527;28;20065;-73
2022/12/10 01:45:48;;;;;;;8.33;4.10;;;;;;;;;;5117324;28;20012;-75
2022/12/10 01:48:14;;;;;;;7.03;4.23;;;;;;;;;;5115388;28;20023;-72
2022/12/10 01:50:40;;;;;;;6.33;4.20;;;;;;;;;;5112991;28;20039;-71
2022/12/10 01:53:06;;;;;;;6.63;4.10;;;;;;;;;;5113632;28;20024;-73
2022/12/10 01:55:41;;;;;;;8.10;3.80;;;;;;;;;;5112415;28;20018;-73
2022/12/10 01:58:06;;;;;;;;;;;;;;;;;;5114052;28;20059;-74
2022/12/10 02:00:34;;;;;;;7.03;4.27;;;;;;;;;;5112366;28;20370;-74
2022/12/10 02:03:04;;;;;;;9.27;4.97;;;;;;;;;;5113597;28;20027;-71
2022/12/10 02:05:40;;;;;;;8.33;4.53;;;;;;;;;;5113385;28;20016;-72
2022/12/10 02:08:08;;;;;;;7.47;4.90;;;;;;;;;;5112657;28;20030;-73
2022/12/10 02:10:53;;;;;;;7.40;4.40;;;;;;;;;;5112568;28;20543;-72
2022/12/10 02:13:30;;;;;;;6.07;3.40;;;;;;;;;;5112212;28;20463;-72
2022/12/10 02:16:07;;;;;;;4.80;3.57;;;;;;;;;;5113714;28;20047;-71
2022/12/10 02:18:37;;;;;;;6.57;3.50;;;;;;;;;;5112168;28;20027;-72
2022/12/10 02:21:30;;;;;;;5.97;3.50;;;;;;;;;;5111648;28;20138;-72
2022/12/10 02:23:59;;;;;;;6.30;3.07;;;;;;;;;;5111599;28;20035;-72
2022/12/10 02:26:24;;;;;;;4.83;2.30;;;;;;;;;;5115793;28;20387;-72
2022/12/10 02:28:53;;;;;;;5.10;3.33;;;;;;;;;;5117657;28;20016;-72
2022/12/10 02:31:21;;;;;;;4.57;2.50;;;;;;;;;;5115467;28;20048;-74
2022/12/10 02:33:49;;;;;;;4.60;3.27;;;;;;;;;;5116280;28;20047;-73
2022/12/10 02:36:14;;;;;;;5.27;2.60;;;;;;;;;;5116220;28;20524;-71
2022/12/10 02:38:41;;;;;;;5.17;3.00;;;;;;;;;;5115879;28;20043;-71
2022/12/10 02:41:08;;;;;;;5.77;3.10;;;;;;;;;;5117166;28;20098;-72
2022/12/10 02:43:34;;;;;;;5.50;3.20;;;;;;;;;;5115328;28;20073;-73
2022/12/10 02:46:02;;;;;;;6.03;3.97;;;;;;;;;;5116821;28;20039;-72
2022/12/10 02:48:28;;;;;;;4.10;2.57;;;;;;;;;;5115929;28;20024;-71
2022/12/10 02:50:53;;;;;;;5.27;3.40;;;;;;;;;;5116979;28;20433;-71
2022/12/10 02:53:19;;;;;;;5.57;3.60;;;;;;;;;;5116570;28;20018;-73
2022/12/10 02:55:44;;;;;;;4.80;3.37;;;;;;;;;;5115166;28;20019;-73
2022/12/10 02:58:19;;;;;;;4.63;3.30;;;;;;;;;;5116947;28;20387;-72
2022/12/10 03:00:58;;;;;;;5.30;3.22;;;;;;;;;;5116352;28;20030;-73
2022/12/10 03:03:44;;;;;;;6.03;3.93;;;;;;;;;;5117003;28;20034;-75
2022/12/10 03:06:11;;;;;;;;;;;;;;;;;;5117813;28;20055;-73
2022/12/10 03:08:47;;;;;;;6.70;3.67;;;;;;;;;;5117727;28;19903;-73
2022/12/10 03:11:22;;;;;;;4.70;3.23;;;;;;;;;;5117590;28;20114;-74
2022/12/10 03:13:58;;;;;;;6.53;4.03;;;;;;;;;;5117654;28;20026;-74
2022/12/10 03:16:24;;;;;;;8.33;4.10;;;;;;;;;;5119347;28;20031;-74
2022/12/10 03:18:52;;;;;;;6.17;3.83;;;;;;;;;;5122063;28;20357;-75
2022/12/10 03:21:18;;;;;;;5.27;3.47;;;;;;;;;;5117236;28;20020;-73
2022/12/10 03:23:45;;;;;;;6.20;3.70;;;;;;;;;;5116528;28;20024;-73
2022/12/10 03:26:11;;;;;;;6.10;4.43;;;;;;;;;;5115765;28;20031;-74
2022/12/10 03:28:46;;;;;;;4.93;3.50;;;;;;;;;;5117143;28;20108;-73
2022/12/10 03:31:13;;;;;;;5.67;3.60;;;;;;;;;;5116324;28;20051;-74
2022/12/10 03:33:39;;;;;;;5.80;3.47;;;;;;;;;;5115679;28;20016;-73
2022/12/10 03:36:05;;;;;;;4.97;3.00;;;;;;;;;;5115048;28;20489;-73
2022/12/10 03:38:30;;;;;;;5.63;3.07;;;;;;;;;;5115357;28;20015;-73
2022/12/10 03:40:56;;;;;;;5.03;3.50;;;;;;;;;;5114984;28;20372;-78
2022/12/10 03:43:21;;;;;;;5.80;3.43;;;;;;;;;;5115006;28;20015;-72
2022/12/10 03:45:47;;;;;;;5.93;2.90;;;;;;;;;;5116657;28;20102;-73
2022/12/10 03:48:12;;;;;;;4.40;3.17;;;;;;;;;;5116357;28;20027;-74
2022/12/10 03:50:39;;;;;;;4.10;3.40;;;;;;;;;;5116212;28;20012;-74
2022/12/10 03:53:04;;;;;;;3.93;3.20;;;;;;;;;;5115719;28;20494;-73
2022/12/10 03:55:29;;;;;;;3.77;2.83;;;;;;;;;;5115959;28;20007;-72
2022/12/10 03:57:56;;;;;;;3.93;2.87;;;;;;;;;;5115606;28;20387;-73
2022/12/10 04:00:22;;;;;;;5.43;2.60;;;;;;;;;;5114579;28;20027;-73
2022/12/10 04:02:47;;;;;;;4.23;2.90;;;;;;;;;;5114566;28;20016;-74
2022/12/10 04:05:14;;;;;;;5.27;3.03;;;;;;;;;;5115011;28;20095;-72
2022/12/10 04:07:39;;;;;;;3.40;2.57;;;;;;;;;;5115056;28;20103;-74
2022/12/10 04:10:05;;;;;;;4.13;2.80;;;;;;;;;;5113981;28;20062;-73
2022/12/10 04:12:30;;;;;;;5.27;2.93;;;;;;;;;;5116424;28;20468;-73
2022/12/10 04:17:40;;;;;;;4.37;2.10;;;;;;;;;;5116597;28;20537;-72
2022/12/10 04:26:51;;;;;;;3.67;2.17;;;;;;;;;;5114028;28;20050;-72
2022/12/10 04:28:20;;;;;;;5.83;2.83;;;;;;;;;;5115279;28;20062;-75
2022/12/10 04:30:46;;;;;;;3.90;2.73;;;;;;;;;;5113422;28;20075;-73
2022/12/10 04:33:11;;;;;;;3.87;2.60;;;;;;;;;;5113432;28;20016;-73
2022/12/10 04:35:36;;;;;;;3.00;2.23;;;;;;;;;;5113458;28;20027;-73
2022/12/10 04:38:02;;;;;;;2.73;2.30;;;;;;;;;;5114481;28;20030;-73
2022/12/10 04:40:27;;;;;;;3.20;2.60;;;;;;;;;;5114670;28;20550;-73
2022/12/10 04:42:52;;;;;;;4.23;2.47;;;;;;;;;;5114815;28;20046;-72
2022/12/10 04:45:18;;;;;;;3.37;2.30;;;;;;;;;;5114688;28;20012;-73
2022/12/10 04:47:43;;;;;;;3.83;2.43;;;;;;;;;;5113918;28;20103;-74
2022/12/10 04:50:09;;;;;;;4.57;2.73;;;;;;;;;;5113283;28;20019;-73
2022/12/10 04:52:34;;;;;;;3.47;2.30;;;;;;;;;;5113811;28;20047;-73
2022/12/10 04:55:00;;;;;;;3.03;2.17;;;;;;;;;;5114095;28;20008;-74
2022/12/10 04:57:25;;;;;;;2.73;1.87;;;;;;;;;;5112968;28;20035;-73
2022/12/10 04:59:50;;;;;;;4.10;2.50;;;;;;;;;;5113178;28;20016;-73
2022/12/10 05:02:16;;;;;;;2.60;2.27;;;;;;;;;;5113268;28;20383;-74
2022/12/10 05:04:41;;;;;;;3.20;2.20;;;;;;;;;;5115239;28;20023;-75
2022/12/10 05:07:06;;;;;;;3.40;2.03;;;;;;;;;;5118075;28;20050;-77
2022/12/10 05:09:32;;;;;;;2.47;2.07;;;;;;;;;;5117683;28;20016;-72
2022/12/10 05:11:58;;;;;;;2.57;2.20;;;;;;;;;;5114098;28;20015;-74
2022/12/10 05:14:25;;;;;;;3.03;2.03;;;;;;;;;;5113173;28;20372;-72
2022/12/10 05:16:51;;;;;;;2.37;1.70;;;;;;;;;;5112984;28;20027;-73
2022/12/10 05:19:19;;;;;;;3.80;2.50;;;;;;;;;;5114094;28;20522;-73
2022/12/10 05:24:29;;;;;;;2.30;1.60;;;;;;;;;;5113796;28;20124;-73
2022/12/10 05:26:56;;;;;;;2.57;1.97;;;;;;;;;;5112706;28;20491;-73
2022/12/10 05:29:21;;;;;;;2.47;2.03;;;;;;;;;;5113696;28;20077;-73
2022/12/10 05:31:47;;;;;;;3.17;1.90;;;;;;;;;;5112261;28;20019;-72
2022/12/10 05:34:12;;;;;;;2.60;1.90;;;;;;;;;;5112608;28;20461;-73
2022/12/10 05:36:38;;;;;;;2.70;2.00;;;;;;;;;;5112446;28;20027;-73
2022/12/10 05:39:03;;;;;;;2.40;1.70;;;;;;;;;;5112088;28;20026;-73
2022/12/10 05:41:30;;;;;;;1.80;1.60;;;;;;;;;;5114109;28;20042;-74
2022/12/10 05:43:56;;;;;;;2.20;1.70;;;;;;;;;;5112576;28;20026;-74
2022/12/10 05:46:23;;;;;;;3.27;1.70;;;;;;;;;;5112723;28;20042;-74
2022/12/10 05:48:49;;;;;;;2.80;2.10;;;;;;;;;;5112836;28;20012;-72
2022/12/10 05:51:16;;;;;;;3.40;1.93;;;;;;;;;;5116789;28;20015;-73
2022/12/10 05:53:42;;;;;;;3.10;2.07;;;;;;;;;;5114632;28;20015;-72
2022/12/10 05:56:12;;;;;;;2.73;1.87;;;;;;;;;;5113459;28;20023;-72
2022/12/10 05:58:40;;;;;;;3.07;1.90;;;;;;;;;;5113880;28;20498;-73
2022/12/10 06:01:10;;;;;;;4.57;1.90;;;;;;;;;;5114671;28;20020;-76
2022/12/10 06:03:36;;;;;;;2.70;1.93;;;;;;;;;;5113948;28;20087;-73
2022/12/10 06:06:02;;;;;;;2.93;2.10;;;;;;;;;;5115443;28;20462;-74
2022/12/10 06:08:27;;;;;;;3.50;2.30;;;;;;;;;;5114209;28;20016;-74
2022/12/10 06:10:54;;;;;;;2.47;2.20;;;;;;;;;;5114167;28;20016;-73
2022/12/10 06:13:20;;;;;;;3.70;2.50;;;;;;;;;;5116333;28;20498;-74
2022/12/10 06:15:46;;;;;;;3.97;2.70;;;;;;;;;;5114889;28;20035;-74
2022/12/10 06:18:11;;;;;;;3.97;2.40;;;;;;;;;;5112570;28;20085;-74
2022/12/10 06:20:37;;;;;;;3.63;2.27;;;;;;;;;;5112156;28;20018;-74
2022/12/10 06:23:03;;;;;;;4.93;2.50;;;;;;;;;;5112233;28;20536;-74
2022/12/10 06:25:28;;;;;;;2.80;2.30;;;;;;;;;;5112010;28;20023;-73
2022/12/10 06:27:53;;;;;;;3.47;2.23;;;;;;;;;;5112208;28;20485;-73
2022/12/10 06:30:19;;;;;;;2.93;2.10;;;;;;;;;;5111762;28;20046;-74
2022/12/10 06:32:44;;;;;;;3.33;2.63;;;;;;;;;;5111828;28;20020;-73
2022/12/10 06:35:10;;;;;;;3.83;2.77;;;;;;;;;;5112095;28;20047;-74
2022/12/10 06:37:35;;;;;;;3.97;2.60;;;;;;;;;;5112190;28;20040;-74
2022/12/10 06:40:04;;;;;;;4.60;3.10;;;;;;;;;;5113315;28;20456;-74
2022/12/10 06:42:30;;;;;;;5.47;2.80;;;;;;;;;;5111680;28;20076;-73
2022/12/10 06:44:57;;;;;;;4.07;2.17;;;;;;;;;;5111484;28;20084;-74
2022/12/10 06:47:23;;;;;;;6.87;3.23;;;;;;;;;;5111622;28;20018;-73
2022/12/10 06:49:49;;;;;;;3.80;2.70;;;;;;;;;;5113134;28;20102;-73
2022/12/10 06:52:15;;;;;;;2.77;1.87;;;;;;;;;;5113335;28;20050;-73
2022/12/10 06:54:41;;;;;;;3.70;2.03;;;;;;;;;;5112712;28;20432;-74
2022/12/10 06:57:06;;;;;;;3.10;1.90;;;;;;;;;;5113031;28;20114;-72
2022/12/10 06:59:32;;;;;;;2.70;1.73;;;;;;;;;;5113356;28;20012;-72
2022/12/10 07:01:58;;;;;;;3.03;2.10;;;;;;;;;;5111182;28;20081;-72
2022/12/10 07:04:23;;;;;;;2.57;1.90;;;;;;;;;;5111190;28;20015;-72
2022/12/10 07:06:49;;;;;;;7.27;3.30;;;;;;;;;;5111478;28;20531;-72
2022/12/10 07:09:15;;;;;;;3.93;3.00;;;;;;;;;;5111778;28;20396;-73
2022/12/10 07:11:41;;;;;;;4.77;2.83;;;;;;;;;;5116662;28;20018;-73
2022/12/10 07:14:07;;;;;;;5.77;3.17;;;;;;;;;;5116784;28;20102;-74
2022/12/10 07:16:33;;;;;;;5.43;3.20;;;;;;;;;;5118479;28;20526;-74
2022/12/10 07:19:00;;;;;;;4.67;2.77;;;;;;;;;;5116953;28;20019;-73
2022/12/10 07:21:28;;;;;;;5.50;2.80;;;;;;;;;;5115923;28;20023;-73
2022/12/10 07:23:55;;;;;;;4.83;2.83;;;;;;;;;;5115033;28;20118;-74
2022/12/10 07:26:21;;;;;;;3.33;2.50;;;;;;;;;;5115262;28;20016;-74
2022/12/10 07:28:47;;;;;;;5.30;2.90;;;;;;;;;;5116378;28;20157;-75
2022/12/10 07:31:12;;;;;;;4.10;2.60;;;;;;;;;;5114516;28;20126;-74
2022/12/10 07:33:38;;;;;;;3.60;2.10;;;;;;;;;;5114716;28;20416;-74
2022/12/10 07:36:07;;;;;;;3.87;2.40;;;;;;;;;;5115053;28;20019;-72
2022/12/10 07:38:33;;;;;;;4.20;2.47;;;;;;;;;;5114781;28;20023;-72
2022/12/10 07:41:01;;;;;;;4.20;1.93;;;;;;;;;;5113911;28;20020;-72
2022/12/10 07:43:27;;;;;;;7.27;3.00;;;;;;;;;;5114689;28;20029;-72
2022/12/10 07:45:53;;;;;;;3.93;2.80;;;;;;;;;;5115701;28;20535;-72
2022/12/10 07:48:18;;;;;;;4.17;1.70;;;;;;;;;;5114467;28;20020;-72
2022/12/10 07:50:44;;;;;;;3.33;2.40;;;;;;;;;;5114701;28;20027;-72
2022/12/10 07:53:09;;;;;;;6.87;2.83;;;;;;;;;;5114486;28;20407;-74
2022/12/10 07:55:35;;;;;;;3.63;2.83;;;;;;;;;;5114376;28;20110;-74
2022/12/10 07:58:00;;;;;;;4.23;2.30;;;;;;;;;;5114327;28;20487;-73
2022/12/10 08:00:26;;;;;;;5.33;2.53;;;;;;;;;;5114590;28;20027;-73
2022/12/10 08:02:51;;;;;;;4.80;2.90;;;;;;;;;;5116063;28;20015;-73
2022/12/10 08:05:16;;;;;;;4.93;2.83;;;;;;;;;;5113983;28;20076;-73
2022/12/10 08:07:42;;;;;;;4.50;2.70;;;;;;;;;;5114674;28;20475;-73
2022/12/10 08:10:07;;;;;;;4.27;2.63;;;;;;;;;;5114258;28;20019;-73
2022/12/10 08:12:33;;;;;;;4.70;2.90;;;;;;;;;;5115323;28;20482;-73
2022/12/10 08:14:58;;;;;;;4.23;3.03;;;;;;;;;;5116968;28;20015;-74
2022/12/10 08:17:23;;;;;;;4.40;2.30;;;;;;;;;;5115708;28;20130;-75
2022/12/10 08:19:50;;;;;;;2.87;2.30;;;;;;;;;;5115081;28;20529;-75
2022/12/10 08:22:16;;;;;;;4.77;3.10;;;;;;;;;;5116264;28;20019;-74
2022/12/10 08:24:41;;;;;;;5.30;2.43;;;;;;;;;;5115525;28;20020;-72
2022/12/10 08:27:06;;;;;;;4.03;2.87;;;;;;;;;;5116606;28;20076;-72
2022/12/10 08:29:32;;;;;;;4.77;2.93;;;;;;;;;;5115797;28;20032;-74
2022/12/10 08:31:57;;;;;;;4.60;2.70;;;;;;;;;;5115842;28;20085;-73
2022/12/10 08:34:25;;;;;;;4.23;2.87;;;;;;;;;;5118118;28;20012;-74
2022/12/10 08:36:50;;;;;;;4.20;2.63;;;;;;;;;;5117649;28;20483;-75
2022/12/10 08:39:16;;;;;;;4.67;2.63;;;;;;;;;;5116905;28;20023;-73
2022/12/10 08:41:45;;;;;;;3.77;2.37;;;;;;;;;;5118509;28;20098;-74
2022/12/10 08:44:12;;;;;;;4.60;3.20;;;;;;;;;;5116791;28;20023;-74
2022/12/10 08:46:38;;;;;;;6.17;3.30;;;;;;;;;;5114342;28;20046;-75
2022/12/10 08:49:06;;;;;;;5.30;3.20;;;;;;;;;;5117369;28;20028;-74
2022/12/10 08:51:32;;;;;;;4.00;2.80;;;;;;;;;;5116501;28;20015;-73
2022/12/10 08:53:59;;;;;;;5.33;2.50;;;;;;;;;;5116438;28;20532;-75
2022/12/10 08:56:25;;;;;;;5.03;2.80;;;;;;;;;;5113219;28;20015;-75
2022/12/10 08:58:50;;;;;;;6.63;3.30;;;;;;;;;;5113764;28;20102;-75
2022/12/10 09:01:17;;;;;;;4.90;3.20;;;;;;;;;;5114345;28;20459;-75
2022/12/10 09:03:42;;;;;;;4.57;2.80;;;;;;;;;;5115463;28;20645;-74
2022/12/10 09:06:12;;;;;;;7.80;3.40;;;;;;;;;;5116796;28;20471;-74
2022/12/10 09:08:38;;;;;;;5.73;3.53;;;;;;;;;;5116410;28;20016;-74
2022/12/10 09:11:06;;;;;;;5.20;2.80;;;;;;;;;;5114532;28;20378;-75
2022/12/10 09:13:32;;;;;;;5.97;3.07;;;;;;;;;;5113781;28;20471;-75
2022/12/10 09:15:57;;;;;;;5.27;2.70;;;;;;;;;;5113563;28;20039;-75
2022/12/10 09:18:22;;;;;;;4.77;2.83;;;;;;;;;;5117635;28;20032;-72
2022/12/10 09:20:49;;;;;;;5.43;2.67;;;;;;;;;;5116631;28;20061;-75
2022/12/10 09:23:14;;;;;;;4.97;3.37;;;;;;;;;;5113629;28;20023;-73
2022/12/10 09:25:39;;;;;;;7.67;3.40;;;;;;;;;;5113256;28;20022;-73
2022/12/10 09:28:05;;;;;;;4.80;3.00;;;;;;;;;;5112854;28;20494;-73
2022/12/10 09:30:30;;;;;;;7.60;2.83;;;;;;;;;;5112246;28;20059;-74
2022/12/10 09:32:56;;;;;;;5.47;3.20;;;;;;;;;;5112351;28;20027;-75
2022/12/10 09:35:21;;;;;;;5.60;3.00;;;;;;;;;;5112481;28;20016;-74
2022/12/10 09:37:46;;;;;;;6.60;3.00;;;;;;;;;;5112397;28;20459;-75
2022/12/10 09:40:16;;;;;;;9.03;3.90;;;;;;;;;;5113448;28;20019;-76
2022/12/10 09:42:53;;;;;;;5.90;3.50;;;;;;;;;;5112248;28;20023;-74
2022/12/10 09:45:29;;;;;;;7.87;4.03;;;;;;;;;;5114578;28;20133;-80
2022/12/10 09:47:55;;;;;;;6.27;3.43;;;;;;;;;;5117924;28;20055;-77
2022/12/10 09:50:28;;;;;;;7.80;3.70;;;;;;;;;;5117871;28;20053;-74
2022/12/10 09:52:57;;;;;;;4.80;3.17;;;;;;;;;;5118259;28;20027;-75
2022/12/10 09:55:27;;;;;;;9.47;3.70;;;;;;;;;;5118665;28;20026;-75
2022/12/10 09:57:53;;;;;;;6.50;2.80;;;;;;;;;;5117048;28;20399;-74
2022/12/10 10:00:25;;;;;;;6.13;3.43;;;;;;;;;;5117020;28;20020;-74
2022/12/10 10:02:54;;;;;;;8.07;3.90;;;;;;;;;;5117641;28;20022;-80
2022/12/10 10:05:22;;;;;;;5.50;3.67;;;;;;;;;;5115812;28;20016;-73
2022/12/10 10:07:50;;;;;;;7.03;3.83;;;;;;;;;;5113209;28;20015;-74
2022/12/10 10:10:24;;;;;;;5.17;3.17;;;;;;;;;;5114341;28;20029;-74
2022/12/10 10:12:54;;;;;;;5.90;3.50;;;;;;;;;;5112193;28;20387;-74
2022/12/10 10:15:24;;;;;;;5.93;3.37;;;;;;;;;;5114042;28;20019;-73
2022/12/10 10:17:52;;;;;;;5.53;3.37;;;;;;;;;;5113066;28;20031;-74
2022/12/10 10:20:19;;;;;;;4.17;2.60;;;;;;;;;;5113916;28;20016;-75
2022/12/10 10:22:44;;;;;;;5.17;3.97;;;;;;;;;;5112452;28;20030;-74
2022/12/10 10:25:15;;;;;;;6.43;3.33;;;;;;;;;;5112238;28;20016;-74
2022/12/10 10:27:40;;;;;;;7.50;4.60;;;;;;;;;;5113033;28;20015;-76
2022/12/10 10:30:06;;;;;;;6.03;3.60;;;;;;;;;;5116441;28;20040;-75
2022/12/10 10:32:35;;;;;;;6.33;3.40;;;;;;;;;;5118020;28;20020;-73
2022/12/10 10:35:00;;;;;;;7.20;3.23;;;;;;;;;;5115209;28;20023;-74
2022/12/10 10:37:28;;;;;;;5.93;3.60;;;;;;;;;;5113072;28;20368;-73
2022/12/10 10:39:54;;;;;;;7.27;4.20;;;;;;;;;;5114413;28;20038;-75
2022/12/10 10:42:41;;;;;;;5.57;3.23;;;;;;;;;;5112450;28;20020;-72
2022/12/10 10:45:26;;;;;;;4.77;3.40;;;;;;;;;;5113470;28;20039;-75
2022/12/10 10:47:52;;;;;;;;;;;;;;;;;;5117722;28;20008;-75
2022/12/10 10:50:24;;;;;;;4.90;2.90;;;;;;;;;;5115535;28;20443;-74
2022/12/10 10:52:49;;;;;;;4.20;3.20;;;;;;;;;;5115453;28;20016;-75
2022/12/10 10:55:34;;;;;;;6.00;3.10;;;;;;;;;;5116129;28;20096;-73
2022/12/10 10:58:00;;;;;;;4.38;3.13;;;;;;;;;;5116817;28;20024;-73
2022/12/10 11:00:25;;;;;;;5.80;3.67;;;;;;;;;;5115469;28;20027;-75
2022/12/10 11:02:53;;;;;;;5.23;2.73;;;;;;;;;;5117204;28;20107;-75
2022/12/10 11:05:23;;;;;;;4.67;2.87;;;;;;;;;;5115574;28;20111;-73
2022/12/10 11:07:57;;;;;;;4.43;3.03;;;;;;;;;;5115343;28;20027;-75
2022/12/10 11:10:23;;;;;;;4.90;3.00;;;;;;;;;;5115532;28;20535;-76
2022/12/10 11:13:06;;;;;;;7.20;3.97;;;;;;;;;;5115340;28;20026;-76
2022/12/10 11:15:40;;;;;;;5.37;3.20;;;;;;;;;;5115818;28;20015;-75
2022/12/10 11:18:26;;;;;;;4.60;2.88;;;;;;;;;;5115496;28;20032;-75
2022/12/10 11:20:51;;;;;;;;;;;;;;;;;;5116785;28;20042;-75
2022/12/10 11:23:20;;;;;;;7.70;3.30;;;;;;;;;;5115196;28;19904;-74
2022/12/10 11:26:02;;;;;;;6.80;3.97;;;;;;;;;;5116720;28;20016;-75
2022/12/10 11:28:34;;;;;;;4.40;2.90;;;;;;;;;;5116827;27;20467;-74
2022/12/10 11:31:07;;;;;;;4.50;3.00;;;;;;;;;;5114359;28;20407;-73
2022/12/10 11:33:35;;;;;;;7.50;2.90;;;;;;;;;;5115282;28;20353;-74
2022/12/10 11:36:07;;;;;;;7.93;3.40;;;;;;;;;;5115267;28;20023;-74
2022/12/10 11:38:40;;;;;;;5.83;3.50;;;;;;;;;;5116382;28;20110;-74
2022/12/10 11:41:15;;;;;;;5.30;3.37;;;;;;;;;;5114474;28;20023;-74
2022/12/10 11:44:11;;;;;;;8.68;3.25;;;;;;;;;;5116898;28;20024;-73
2022/12/10 11:46:55;;;;;;;5.83;3.10;;;;;;;;;;5117264;28;20027;-74
2022/12/10 11:49:24;;;;;;;6.83;3.30;;;;;;;;;;5115612;28;20024;-75
2022/12/10 11:52:08;;;;;;;5.80;3.20;;;;;;;;;;5116104;28;20034;-74
2022/12/10 11:54:56;;;;;;;6.60;3.13;;;;;;;;;;5114925;28;20050;-75
2022/12/10 11:57:36;;;;;;;5.88;3.53;;;;;;;;;;5114512;28;20031;-73
2022/12/10 12:00:14;;;;;;;4.53;2.63;;;;;;;;;;5115732;28;20368;-73
2022/12/10 12:02:42;;;;;;;5.93;2.43;;;;;;;;;;5114655;28;20027;-75
2022/12/10 12:05:19;;;;;;;5.20;2.60;;;;;;;;;;5116499;28;20024;-74
2022/12/10 12:07:51;;;;;;;6.10;3.27;;;;;;;;;;5117162;28;20105;-74
2022/12/10 12:10:35;;;;;;;4.90;2.80;;;;;;;;;;5119020;28;20023;-73
2022/12/10 12:13:05;;;;;;;2.87;2.17;;;;;;;;;;5115645;28;20365;-73
2022/12/10 12:15:37;;;;;;;5.77;3.50;;;;;;;;;;5114967;28;20104;-75
2022/12/10 12:18:06;;;;;;;4.80;2.70;;;;;;;;;;5116940;28;20036;-74
2022/12/10 12:20:38;;;;;;;3.67;2.50;;;;;;;;;;5115239;28;20100;-75
2022/12/10 12:23:13;;;;;;;5.43;3.03;;;;;;;;;;5115299;28;20115;-73
2022/12/10 12:25:40;;;;;;;5.85;3.10;;;;;;;;;;5115676;28;20112;-74
2022/12/10 12:28:15;;;;;;;6.53;3.20;;;;;;;;;;5114374;28;20015;-73
2022/12/10 12:30:44;;;;;;;8.37;3.13;;;;;;;;;;5114649;28;20054;-73
2022/12/10 12:33:18;;;;;;;8.23;3.30;;;;;;;;;;5114775;28;20024;-75
2022/12/10 12:35:50;;;;;;;5.70;3.27;;;;;;;;;;5115231;28;20086;-76
2022/12/10 12:38:27;;;;;;;5.83;3.70;;;;;;;;;;5115732;28;20028;-74
2022/12/10 12:40:56;;;;;;;5.73;3.27;;;;;;;;;;5114759;28;20436;-74
2022/12/10 12:43:46;;;;;;;7.47;3.40;;;;;;;;;;5114961;28;20110;-77
2022/12/10 12:46:18;;;;;;;6.40;3.17;;;;;;;;;;5107563;28;20035;-76
2022/12/10 12:48:46;;;;;;;7.07;3.00;;;;;;;;;;5112808;28;20085;-74
2022/12/10 12:51:21;;;;;;;6.17;2.70;;;;;;;;;;5113460;28;20035;-75
2022/12/10 12:53:46;;;;;;;7.47;3.03;;;;;;;;;;5115861;28;20080;-74
2022/12/10 12:56:24;;;;;;;4.27;2.50;;;;;;;;;;5113570;28;20491;-75
2022/12/10 12:59:04;;;;;;;5.53;2.53;;;;;;;;;;5113675;28;20115;-75
2022/12/10 13:01:35;;;;;;;6.53;3.17;;;;;;;;;;5115256;27;20104;-75
2022/12/10 13:04:01;;;;;;;5.30;3.00;;;;;;;;;;5114536;28;20024;-74
2022/12/10 13:06:34;;;;;;;5.10;2.70;;;;;;;;;;5114424;28;20471;-74
2022/12/10 13:09:12;;;;;;;5.87;2.83;;;;;;;;;;5113190;28;20072;-74
2022/12/10 13:11:38;;;;;;;4.63;2.73;;;;;;;;;;5113068;28;20024;-72
2022/12/10 13:14:10;;;;;;;5.00;2.67;;;;;;;;;;5114553;28;20027;-74
2022/12/10 13:16:38;;;;;;;5.47;2.87;;;;;;;;;;5115847;28;20084;-75
2022/12/10 13:19:19;;;;;;;4.23;2.77;;;;;;;;;;5114198;28;20023;-74
2022/12/10 13:22:05;;;;;;;4.83;2.80;;;;;;;;;;5112563;28;20028;-75
2022/12/10 13:24:45;;;;;;;10.53;3.30;;;;;;;;;;5111605;28;20039;-73
2022/12/10 13:27:11;;;;;;;4.33;2.60;;;;;;;;;;5113556;28;20019;-73
2022/12/10 13:29:48;;;;;;;5.67;2.60;;;;;;;;;;5112551;28;20028;-75
2022/12/10 13:32:15;;;;;;;5.67;2.97;;;;;;;;;;5112373;28;20038;-73
2022/12/10 13:34:41;;;;;;;6.33;2.80;;;;;;;;;;5112091;28;20023;-74
2022/12/10 13:37:09;;;;;;;5.70;2.90;;;;;;;;;;5112096;28;20399;-75
2022/12/10 13:39:41;;;;;;;5.47;3.40;;;;;;;;;;5114210;28;20027;-73
2022/12/10 13:44:56;;;;;;;4.97;2.83;;;;;;;;;;5113781;28;20394;-73
2022/12/10 13:47:34;;;;;;;5.30;3.00;;;;;;;;;;5112364;28;20514;-73
2022/12/10 13:50:05;;;;;;;4.70;2.97;;;;;;;;;;5113176;28;20023;-74
2022/12/10 13:52:45;;;;;;;4.83;2.93;;;;;;;;;;5112989;28;20015;-73
2022/12/10 13:55:29;;;;;;;8.63;3.30;;;;;;;;;;5111725;28;20115;-73
2022/12/10 13:58:13;;;;;;;5.03;3.03;;;;;;;;;;5113193;28;20164;-72
2022/12/10 14:00:39;;;;;;;5.40;2.57;;;;;;;;;;5112014;28;20024;-73
2022/12/10 14:03:29;;;;;;;4.90;2.47;;;;;;;;;;5112522;28;20027;-74
2022/12/10 14:05:55;;;;;;;3.73;2.40;;;;;;;;;;5114054;28;20049;-73
2022/12/10 14:08:23;;;;;;;4.37;2.90;;;;;;;;;;5113574;28;20024;-74
2022/12/10 14:10:49;;;;;;;5.97;2.77;;;;;;;;;;5112819;28;20016;-74
2022/12/10 14:13:16;;;;;;;4.13;2.10;;;;;;;;;;5112267;28;20023;-72
2022/12/10 14:15:46;;;;;;;5.57;2.43;;;;;;;;;;5113829;28;20099;-75
2022/12/10 14:18:13;;;;;;;5.33;2.47;;;;;;;;;;5113788;28;20034;-75
2022/12/10 14:20:40;;;;;;;5.63;2.37;;;;;;;;;;5116346;28;20080;-74
2022/12/10 14:23:33;;;;;;;9.07;3.60;;;;;;;;;;5116311;28;20016;-73
2022/12/10 14:25:58;;;;;;;5.10;2.30;;;;;;;;;;5116986;28;20445;-75
2022/12/10 14:28:24;;;;;;;4.10;2.50;;;;;;;;;;5118033;28;20015;-73
2022/12/10 14:30:50;;;;;;;4.63;2.37;;;;;;;;;;5117100;28;20510;-73
2022/12/10 14:33:18;;;;;;;5.60;2.20;;;;;;;;;;5116715;28;20030;-72
2022/12/10 14:35:46;;;;;;;4.93;2.27;;;;;;;;;;5118700;28;20024;-73
2022/12/10 14:38:18;;;;;;;4.53;2.40;;;;;;;;;;5116346;28;20476;-73
2022/12/10 14:40:44;;;;;;;5.33;3.00;;;;;;;;;;5116080;28;20020;-73
2022/12/10 14:43:18;;;;;;;4.10;2.20;;;;;;;;;;5117096;28;20098;-73
2022/12/10 14:45:46;;;;;;;4.17;2.40;;;;;;;;;;5116606;28;20125;-74
2022/12/10 14:48:16;;;;;;;4.73;2.73;;;;;;;;;;5117770;28;20054;-73
2022/12/10 14:50:41;;;;;;;4.93;2.10;;;;;;;;;;5116545;28;20051;-72
2022/12/10 14:53:13;;;;;;;6.60;2.33;;;;;;;;;;5117625;28;20034;-73
2022/12/10 14:55:38;;;;;;;3.47;2.27;;;;;;;;;;5117675;28;20015;-73
2022/12/10 14:58:04;;;;;;;2.57;1.90;;;;;;;;;;5115596;28;20036;-75
2022/12/10 15:00:30;;;;;;;3.77;2.30;;;;;;;;;;5117157;28;20019;-74
2022/12/10 15:02:58;;;;;;;4.23;1.90;;;;;;;;;;5117895;28;20026;-75
2022/12/10 15:05:33;;;;;;;3.73;1.97;;;;;;;;;;5120611;28;20388;-73